Time;durP1;ratioP1;P1;durP2;ratioP2;P2;SDS_P1;SDS_P2;PMS_P1;PMS_P2;Temp;Humidity;BMP_temperature;BMP_pressure;BME280_temperature;BME280_humidity;BME280_pressure;Samples;Min_cycle;Max_cycle;Signal;HPM_P1;HPM_P2
2023/03/20 00:02:24;;;;;;;57.38;39.25;;;;;;;8.14;100.00;162693.31;5071414;28;20120;-61
2023/03/20 00:04:49;;;;;;;63.15;41.67;;;;;;;8.10;100.00;162682.50;5069631;28;20041;-60
2023/03/20 00:07:15;;;;;;;61.00;38.75;;;;;;;8.12;100.00;162686.59;5071267;28;20078;-60
2023/03/20 00:09:41;;;;;;;62.60;40.58;;;;;;;8.10;100.00;162682.50;5069772;28;20419;-60
2023/03/20 00:12:21;;;;;;;63.17;39.33;;;;;;;8.00;100.00;162655.59;5071429;28;20020;-60
2023/03/20 00:14:46;;;;;;;62.88;42.40;;;;;;;8.01;100.00;162658.22;5069457;28;20063;-59
2023/03/20 00:17:18;;;;;;;59.55;39.35;;;;;;;7.98;100.00;162650.19;5071064;28;20400;-60
2023/03/20 00:19:44;;;;;;;61.95;41.95;;;;;;;7.88;100.00;162625.91;5069089;28;20049;-60
2023/03/20 00:22:11;;;;;;;64.97;39.22;;;;;;;7.94;100.00;162642.06;5071261;28;20115;-60
2023/03/20 00:24:36;;;;;;;70.03;41.83;;;;;;;7.99;100.00;162652.88;5069454;28;20032;-60
2023/03/20 00:27:02;;;;;;;70.07;42.08;;;;;;;8.00;100.00;162655.59;5070663;28;20047;-60
2023/03/20 00:29:29;;;;;;;55.28;38.30;;;;;;;8.02;100.00;162660.94;5069388;28;20025;-60
2023/03/20 00:31:56;;;;;;;67.88;38.65;;;;;;;8.01;100.00;162658.22;5071006;28;20044;-60
2023/03/20 00:34:24;;;;;;;66.03;36.42;;;;;;;8.01;100.00;162658.22;5069520;28;20024;-60
2023/03/20 00:36:50;;;;;;;68.53;41.05;;;;;;;7.98;100.00;162650.19;5070755;28;20020;-60
2023/03/20 00:39:16;;;;;;;55.63;36.65;;;;;;;8.01;100.00;162658.22;5069476;28;20032;-57
2023/03/20 00:41:45;;;;;;;57.28;36.08;;;;;;;8.01;100.00;162658.22;5070135;28;20376;-60
2023/03/20 00:44:18;;;;;;;54.85;35.70;;;;;;;7.96;100.00;162644.78;5071226;28;20111;-60
2023/03/20 00:46:46;;;;;;;59.47;36.47;;;;;;;7.94;100.00;162642.06;5068997;28;20037;-60
2023/03/20 00:49:11;;;;;;;69.65;37.72;;;;;;;7.96;100.00;162644.78;5070767;28;20364;-60
2023/03/20 00:51:37;;;;;;;57.33;34.47;;;;;;;7.98;100.00;162650.19;5069045;28;20051;-60
2023/03/20 00:54:11;;;;;;;60.95;36.45;;;;;;;7.99;100.00;162652.88;5070335;28;20078;-60
2023/03/20 00:56:44;;;;;;;54.35;38.20;;;;;;;8.01;100.00;162658.22;5069194;28;20094;-61
2023/03/20 00:59:16;;;;;;;56.25;34.17;;;;;;;8.04;100.00;162666.34;5070332;28;20185;-61
2023/03/20 01:01:42;;;;;;;51.10;30.77;;;;;;;8.05;100.00;162670.38;5048821;28;20124;-61
2023/03/20 01:04:12;;;;;;;54.72;30.60;;;;;;;7.99;100.00;162652.88;5050874;28;20112;-61
2023/03/20 01:06:38;;;;;;;53.78;29.55;;;;;;;8.04;100.00;162666.34;5048626;28;20110;-60
2023/03/20 01:09:04;;;;;;;53.25;31.65;;;;;;;7.98;100.00;162650.19;5049734;28;20029;-61
2023/03/20 01:11:30;;;;;;;47.90;29.92;;;;;;;8.03;100.00;162665.00;5067180;28;20453;-61
2023/03/20 01:13:56;;;;;;;44.42;28.65;;;;;;;7.96;100.00;162644.78;5070738;28;20025;-61
2023/03/20 01:16:24;;;;;;;52.55;31.67;;;;;;;7.90;100.00;162631.31;5068552;28;20047;-61
2023/03/20 01:18:50;;;;;;;45.78;30.25;;;;;;;7.96;100.00;162644.78;5070282;28;20110;-61
2023/03/20 01:21:17;;;;;;;57.08;33.90;;;;;;;7.96;100.00;162644.78;5068497;28;20126;-61
2023/03/20 01:23:42;;;;;;;46.10;32.00;;;;;;;7.98;100.00;162650.19;5069784;28;20028;-60
2023/03/20 01:26:23;;;;;;;49.42;27.95;;;;;;;7.91;100.00;162634.00;5068709;28;20043;-60
2023/03/20 01:28:49;;;;;;;40.35;24.30;;;;;;;7.90;100.00;162631.31;5070352;28;20040;-60
2023/03/20 01:31:16;;;;;;;50.67;29.92;;;;;;;7.87;100.00;162623.22;5068526;28;20043;-60
2023/03/20 01:33:41;;;;;;;39.28;25.95;;;;;;;7.89;100.00;162627.28;5070194;28;20020;-60
2023/03/20 01:36:16;;;;;;;43.95;26.83;;;;;;;7.85;100.00;162616.47;5068451;28;20047;-61
2023/03/20 01:38:42;;;;;;;45.53;24.10;;;;;;;7.85;100.00;162617.84;5069708;28;20483;-60
2023/03/20 01:41:15;;;;;;;39.33;23.92;;;;;;;7.80;100.00;162604.34;5068789;28;20135;-60
2023/03/20 01:43:42;;;;;;;36.10;21.23;;;;;;;7.71;100.00;162580.09;5070162;28;20024;-60
2023/03/20 01:46:18;;;;;;;30.95;20.13;;;;;;;7.64;100.00;162562.59;5068340;28;20051;-60
2023/03/20 01:48:49;;;;;;;35.10;20.08;;;;;;;7.61;100.00;162555.88;5069907;28;20032;-60
2023/03/20 01:51:20;;;;;;;33.13;20.65;;;;;;;7.62;100.00;162558.56;5068355;28;20052;-60
2023/03/20 01:53:47;;;;;;;30.63;19.83;;;;;;;7.59;100.00;162550.47;5069963;28;20444;-60
2023/03/20 01:56:14;;;;;;;30.38;19.17;;;;;;;7.61;100.00;162554.50;5068663;28;20385;-60
2023/03/20 01:58:45;;;;;;;31.52;17.95;;;;;;;7.64;100.00;162562.59;5069788;28;20085;-60
2023/03/20 02:01:12;;;;;;;30.20;18.08;;;;;;;7.57;100.00;162545.06;5068322;28;20041;-60
2023/03/20 02:03:38;;;;;;;27.15;19.30;;;;;;;7.53;100.00;162532.94;5069874;28;20029;-60
2023/03/20 02:06:05;;;;;;;32.97;18.08;;;;;;;7.51;100.00;162528.91;5068241;28;20547;-60
2023/03/20 02:08:35;;;;;;;29.17;18.70;;;;;;;7.46;100.00;162516.78;5069572;28;20467;-61
2023/03/20 02:11:01;;;;;;;24.88;15.82;;;;;;;7.42;100.00;162506.03;5068399;28;20044;-61
2023/03/20 02:13:29;;;;;;;25.40;17.65;;;;;;;7.43;100.00;162507.34;5069912;28;20422;-61
2023/03/20 02:16:10;;;;;;;27.75;15.43;;;;;;;7.41;100.00;162502.00;5067738;28;20060;-60
2023/03/20 02:18:37;;;;;;;20.83;13.40;;;;;;;7.40;100.00;162499.28;5069666;28;20059;-61
2023/03/20 02:21:16;;;;;;;18.67;15.32;;;;;;;7.38;100.00;162495.22;5068927;28;20064;-61
2023/03/20 02:24:09;;;;;;;17.88;15.13;;;;;;;7.37;100.00;162491.19;5072895;28;20087;-61
2023/03/20 02:26:34;;;;;;;21.33;14.77;;;;;;;7.41;100.00;162502.00;5056992;28;20032;-61
2023/03/20 02:29:09;;;;;;;21.33;14.43;;;;;;;7.36;100.00;162488.50;5073050;28;20119;-60
2023/03/20 02:32:11;;;;;;;17.17;13.90;;;;;;;7.36;100.00;162488.50;5071467;28;20041;-60
2023/03/20 02:35:16;;;;;;;20.45;12.95;;;;;;;7.39;100.00;162496.59;5071604;28;20032;-60
2023/03/20 02:37:47;;;;;;;17.20;12.40;;;;;;;7.40;100.00;162500.63;5071270;28;20031;-60
2023/03/20 02:40:32;;;;;;;21.33;12.90;;;;;;;7.42;100.00;162504.66;5071649;28;20051;-60
2023/03/20 02:43:03;;;;;;;17.33;13.20;;;;;;;7.37;100.00;162492.50;5072943;28;20050;-60
2023/03/20 02:45:37;;;;;;;21.90;13.55;;;;;;;7.40;100.00;162499.28;5070488;28;20048;-60
2023/03/20 02:48:20;;;;;;;21.75;13.80;;;;;;;7.40;100.00;162499.28;5073066;28;20025;-60
2023/03/20 02:50:54;;;;;;;19.05;14.15;;;;;;;7.44;100.00;162510.06;5071565;28;20042;-60
2023/03/20 02:53:41;;;;;;;21.17;14.27;;;;;;;7.44;100.00;162510.06;5073037;28;20079;-60
2023/03/20 02:56:16;;;;;;;25.23;13.43;;;;;;;7.43;100.00;162507.34;5071332;28;20051;-60
2023/03/20 02:58:56;;;;;;;19.60;16.23;;;;;;;7.48;100.00;162520.84;5072813;28;20108;-60
2023/03/20 03:01:39;;;;;;;20.38;15.50;;;;;;;7.51;100.00;162528.91;5070443;28;20064;-59
2023/03/20 03:04:13;;;;;;;25.63;13.75;;;;;;;7.55;100.00;162539.72;5072773;28;20406;-60
2023/03/20 03:06:42;;;;;;;24.35;17.90;;;;;;;7.49;100.00;162523.50;5070592;28;20055;-60
2023/03/20 03:09:13;;;;;;;22.67;17.35;;;;;;;7.48;100.00;162520.84;5072300;28;20040;-60
2023/03/20 03:11:44;;;;;;;23.02;13.05;;;;;;;7.51;100.00;162527.59;5070681;28;20040;-59
2023/03/20 03:14:20;;;;;;;22.08;15.20;;;;;;;7.49;100.00;162523.50;5073074;28;20150;-59
2023/03/20 03:16:48;;;;;;;25.08;16.63;;;;;;;7.44;100.00;162510.06;5070324;28;20052;-59
2023/03/20 03:19:18;;;;;;;25.13;16.95;;;;;;;7.43;100.00;162507.34;5072398;28;20506;-59
2023/03/20 03:21:46;;;;;;;26.02;17.40;;;;;;;7.42;100.00;162506.03;5070609;28;20040;-59
2023/03/20 03:24:33;;;;;;;23.92;17.48;;;;;;;7.47;100.00;162518.16;5071998;28;20021;-61
2023/03/20 03:27:02;;;;;;;25.90;17.88;;;;;;;7.45;100.00;162512.75;5070466;28;20052;-62
2023/03/20 03:29:32;;;;;;;30.25;21.08;;;;;;;7.42;100.00;162504.66;5070928;28;20021;-61
2023/03/20 03:32:00;;;;;;;30.95;19.02;;;;;;;7.43;100.00;162507.34;5071262;28;20570;-61
2023/03/20 03:34:26;;;;;;;28.25;17.52;;;;;;;7.45;100.00;162514.06;5070420;28;20133;-61
2023/03/20 03:37:05;;;;;;;29.45;19.70;;;;;;;7.47;100.00;162518.16;5071933;28;20035;-61
2023/03/20 03:39:48;;;;;;;33.85;21.85;;;;;;;7.44;100.00;162510.06;5070451;28;20484;-61
2023/03/20 03:42:20;;;;;;;33.20;21.10;;;;;;;7.40;100.00;162499.28;5072106;28;20440;-60
2023/03/20 03:45:10;;;;;;;31.67;21.95;;;;;;;7.39;100.00;162497.91;5069810;28;20041;-60
2023/03/20 03:47:45;;;;;;;33.60;21.85;;;;;;;7.46;100.00;162515.44;5072103;28;20033;-60
2023/03/20 03:50:20;;;;;;;36.80;22.75;;;;;;;7.48;100.00;162520.84;5070176;28;20092;-60
2023/03/20 03:52:49;;;;;;;32.38;23.05;;;;;;;7.47;100.00;162518.16;5071328;28;20052;-60
2023/03/20 03:55:24;;;;;;;28.67;20.80;;;;;;;7.45;100.00;162512.75;5069942;28;20048;-60
2023/03/20 03:57:58;;;;;;;32.42;22.88;;;;;;;7.44;100.00;162510.06;5071517;28;20032;-60
2023/03/20 04:00:26;;;;;;;34.63;21.83;;;;;;;7.38;100.00;162493.91;5069552;28;20041;-60
2023/03/20 04:02:57;;;;;;;24.10;17.15;;;;;;;7.29;100.00;162472.34;5071227;28;20028;-60
2023/03/20 04:05:28;;;;;;;32.45;21.83;;;;;;;7.33;100.00;162480.44;5069387;28;20045;-60
2023/03/20 04:07:55;;;;;;;31.08;21.60;;;;;;;7.29;100.00;162471.00;5071103;28;20017;-60
2023/03/20 04:10:20;;;;;;;27.85;20.83;;;;;;;7.34;100.00;162483.09;5069893;28;20055;-60
2023/03/20 04:12:46;;;;;;;28.42;19.55;;;;;;;7.28;100.00;162468.31;5071180;28;20024;-60
2023/03/20 04:15:13;;;;;;;33.13;21.58;;;;;;;7.23;100.00;162456.19;5069384;28;20064;-60
2023/03/20 04:17:39;;;;;;;29.90;20.15;;;;;;;7.18;100.00;162442.72;5070912;28;20032;-60
2023/03/20 04:20:05;;;;;;;35.15;19.98;;;;;;;7.23;100.00;162456.19;5069123;28;20115;-60
2023/03/20 04:22:33;;;;;;;25.17;19.10;;;;;;;7.13;100.00;162429.22;5070762;28;20098;-60
2023/03/20 04:24:59;;;;;;;28.77;20.87;;;;;;;7.17;100.00;162440.03;5069346;28;20056;-60
2023/03/20 04:27:25;;;;;;;27.27;19.30;;;;;;;7.14;100.00;162431.94;5070969;28;20029;-60
2023/03/20 04:29:50;;;;;;;30.83;16.58;;;;;;;6.96;100.00;162384.78;5068579;28;20056;-60
2023/03/20 04:32:15;;;;;;;21.13;15.25;;;;;;;6.98;100.00;162390.19;5071077;28;20024;-60
2023/03/20 04:34:41;;;;;;;20.13;15.57;;;;;;;7.03;100.00;162403.66;5069033;28;20510;-60
2023/03/20 04:37:07;;;;;;;21.30;14.25;;;;;;;6.98;100.00;162391.53;5070836;28;20503;-60
2023/03/20 04:39:32;;;;;;;20.05;15.63;;;;;;;6.93;100.00;162378.06;5068281;28;20024;-60
2023/03/20 04:41:58;;;;;;;20.23;14.52;;;;;;;6.91;100.00;162371.34;5069924;28;20187;-60
2023/03/20 04:44:23;;;;;;;25.58;15.20;;;;;;;6.86;100.00;162359.22;5068775;28;20021;-60
2023/03/20 04:46:49;;;;;;;24.50;16.88;;;;;;;6.83;100.00;162351.13;5070377;28;20453;-60
2023/03/20 04:49:14;;;;;;;22.55;14.95;;;;;;;6.79;100.00;162341.69;5070493;28;20039;-60
2023/03/20 04:51:39;;;;;;;26.45;15.45;;;;;;;6.82;100.00;162348.41;5068813;28;20036;-60
2023/03/20 04:54:05;;;;;;;23.52;14.30;;;;;;;6.79;100.00;162341.69;5070751;28;20024;-60
2023/03/20 04:56:30;;;;;;;22.38;15.43;;;;;;;6.80;100.00;162343.06;5068789;28;20093;-60
2023/03/20 04:58:56;;;;;;;31.30;15.38;;;;;;;6.81;100.00;162347.09;5070246;28;20052;-60
2023/03/20 05:01:22;;;;;;;23.67;15.63;;;;;;;6.77;100.00;162334.97;5068989;28;20039;-60
2023/03/20 05:03:47;;;;;;;18.27;13.65;;;;;;;6.73;100.00;162324.22;5066569;28;20024;-61
2023/03/20 05:06:12;;;;;;;19.80;13.85;;;;;;;6.69;100.00;162313.44;5067125;28;20044;-64
2023/03/20 05:08:38;;;;;;;22.92;13.88;;;;;;;6.62;100.00;162297.28;5069662;28;20036;-63
2023/03/20 05:11:03;;;;;;;18.17;14.68;;;;;;;6.60;100.00;162290.56;5069231;28;20044;-63
2023/03/20 05:13:29;;;;;;;25.58;13.77;;;;;;;6.59;100.00;162287.84;5069989;28;20036;-63
2023/03/20 05:15:55;;;;;;;23.40;17.27;;;;;;;6.58;100.00;162286.53;5068389;28;20106;-63
2023/03/20 05:18:20;;;;;;;21.38;12.88;;;;;;;6.54;100.00;162274.41;5070726;28;20049;-63
2023/03/20 05:20:48;;;;;;;23.30;11.88;;;;;;;6.55;100.00;162278.44;5068414;28;20082;-63
2023/03/20 05:23:13;;;;;;;24.50;14.05;;;;;;;6.49;100.00;162263.59;5070625;28;20021;-63
2023/03/20 05:25:39;;;;;;;18.65;11.30;;;;;;;6.48;100.00;162259.59;5068937;28;20049;-63
2023/03/20 05:28:04;;;;;;;15.05;11.52;;;;;;;6.52;100.00;162270.31;5069543;28;20029;-63
2023/03/20 05:30:30;;;;;;;20.20;12.07;;;;;;;6.51;100.00;162267.69;5068148;28;20049;-63
2023/03/20 05:32:56;;;;;;;18.67;11.32;;;;;;;6.50;100.00;162264.97;5066698;28;20024;-63
2023/03/20 05:35:21;;;;;;;21.65;13.15;;;;;;;6.44;100.00;162248.84;5067358;28;20047;-63
2023/03/20 05:37:47;;;;;;;28.38;15.27;;;;;;;6.49;100.00;162262.28;5070059;28;20033;-63
2023/03/20 05:40:14;;;;;;;34.92;16.88;;;;;;;6.48;100.00;162259.59;5069008;28;20036;-63
2023/03/20 05:42:39;;;;;;;19.95;13.63;;;;;;;6.45;100.00;162251.47;5070014;28;20035;-62
2023/03/20 05:45:05;;;;;;;24.65;13.45;;;;;;;6.44;100.00;162250.16;5068449;28;20041;-61
2023/03/20 05:47:31;;;;;;;21.95;13.48;;;;;;;6.42;100.00;162244.75;5070601;28;20461;-61
2023/03/20 05:49:56;;;;;;;22.45;14.38;;;;;;;6.37;100.00;162230.00;5068318;28;20037;-60
2023/03/20 05:52:22;;;;;;;34.00;14.63;;;;;;;6.37;100.00;162230.00;5070078;28;20476;-61
2023/03/20 05:54:47;;;;;;;21.58;14.13;;;;;;;6.39;100.00;162235.34;5068679;28;20128;-60
2023/03/20 05:57:14;;;;;;;25.40;15.85;;;;;;;6.39;100.00;162236.72;5073005;28;20024;-60
2023/03/20 05:59:39;;;;;;;27.90;15.20;;;;;;;6.42;100.00;162243.44;5072087;28;20507;-60
2023/03/20 06:02:05;;;;;;;26.63;15.82;;;;;;;6.39;100.00;162235.34;5073969;28;20028;-60
2023/03/20 06:04:30;;;;;;;25.27;14.43;;;;;;;6.43;100.00;162247.47;5072742;28;20020;-60
2023/03/20 06:06:56;;;;;;;27.38;18.83;;;;;;;6.45;100.00;162251.47;5073414;28;20028;-60
2023/03/20 06:09:21;;;;;;;20.45;14.30;;;;;;;6.45;100.00;162251.47;5072331;28;20360;-60
2023/03/20 06:11:47;;;;;;;23.15;14.18;;;;;;;6.40;100.00;162238.03;5073701;28;20028;-60
2023/03/20 06:14:12;;;;;;;19.15;13.90;;;;;;;6.40;100.00;162238.03;5073456;28;20020;-60
2023/03/20 06:16:37;;;;;;;28.70;18.92;;;;;;;6.42;100.00;162243.44;5072166;28;20404;-60
2023/03/20 06:19:03;;;;;;;24.58;15.75;;;;;;;6.42;100.00;162243.44;5073372;28;20044;-60
2023/03/20 06:21:28;;;;;;;25.75;15.15;;;;;;;6.43;100.00;162246.13;5071607;28;20052;-60
2023/03/20 06:23:54;;;;;;;32.55;20.90;;;;;;;6.34;100.00;162224.59;5073050;28;20024;-60
2023/03/20 06:26:20;;;;;;;25.00;17.02;;;;;;;6.40;100.00;162239.41;5071984;28;20487;-60
2023/03/20 06:28:45;;;;;;;36.97;21.00;;;;;;;6.47;100.00;162256.88;5073024;28;20028;-60
2023/03/20 06:31:11;;;;;;;30.83;18.77;;;;;;;6.42;100.00;162243.44;5072127;28;20391;-60
2023/03/20 06:33:36;;;;;;;28.85;19.25;;;;;;;6.53;100.00;162273.03;5073834;28;20048;-60
2023/03/20 06:36:03;;;;;;;26.52;18.80;;;;;;;6.55;100.00;162278.44;5071515;28;20145;-60
2023/03/20 06:38:28;;;;;;;28.92;17.17;;;;;;;6.62;100.00;162297.28;5073423;28;20150;-60
2023/03/20 06:40:53;;;;;;;31.55;18.30;;;;;;;6.67;100.00;162309.41;5071344;28;20119;-60
2023/03/20 06:43:19;;;;;;;25.95;18.80;;;;;;;6.71;100.00;162318.81;5072157;28;20032;-60
2023/03/20 06:45:44;;;;;;;33.25;19.48;;;;;;;6.70;100.00;162316.13;5069991;28;20416;-60
2023/03/20 06:48:10;;;;;;;22.40;17.40;;;;;;;6.80;100.00;162343.06;5070981;28;20031;-60
2023/03/20 06:50:36;;;;;;;26.52;18.38;;;;;;;6.81;100.00;162345.78;5071262;28;20039;-60
2023/03/20 06:53:02;;;;;;;36.47;17.90;;;;;;;6.84;100.00;162353.81;5072764;28;20028;-60
2023/03/20 06:55:27;;;;;;;37.70;21.90;;;;;;;6.85;100.00;162356.53;5069926;28;20048;-60
2023/03/20 06:57:53;;;;;;;25.15;15.60;;;;;;;6.85;100.00;162356.53;5069678;28;20586;-60
2023/03/20 07:00:20;;;;;;;32.03;17.83;;;;;;;6.88;100.00;162364.63;5062534;28;20047;-60
2023/03/20 07:02:46;;;;;;;37.83;17.85;;;;;;;6.84;100.00;162353.81;5052454;28;20017;-60
2023/03/20 07:05:11;;;;;;;28.95;19.38;;;;;;;6.87;100.00;162361.91;5058946;28;20052;-60
2023/03/20 07:07:37;;;;;;;24.10;15.45;;;;;;;6.90;100.00;162369.97;5072633;28;20070;-60
2023/03/20 07:10:03;;;;;;;27.65;18.15;;;;;;;7.02;100.00;162399.63;5070983;28;20626;-60
2023/03/20 07:12:28;;;;;;;21.25;16.90;;;;;;;7.06;100.00;162410.38;5072662;28;20024;-60
2023/03/20 07:14:54;;;;;;;24.95;17.10;;;;;;;7.11;100.00;162425.19;5060881;28;20094;-60
2023/03/20 07:17:21;;;;;;;26.73;17.88;;;;;;;7.13;100.00;162429.22;5052469;28;20033;-60
2023/03/20 07:19:46;;;;;;;29.02;17.98;;;;;;;7.25;100.00;162461.59;5050239;28;20573;-60
2023/03/20 07:22:21;;;;;;;27.42;17.48;;;;;;;7.28;100.00;162469.63;5052966;28;20025;-60
2023/03/20 07:24:47;;;;;;;21.02;14.57;;;;;;;7.37;100.00;162491.19;5050610;28;20040;-60
2023/03/20 07:27:12;;;;;;;26.55;16.92;;;;;;;7.36;100.00;162489.88;5052115;28;20025;-60
2023/03/20 07:29:37;;;;;;;22.27;14.88;;;;;;;7.42;100.00;162506.03;5050932;28;20037;-60
2023/03/20 07:32:03;;;;;;;30.30;16.27;;;;;;;7.49;100.00;162523.50;5052297;28;20029;-60
2023/03/20 07:34:28;;;;;;;27.35;16.13;;;;;;;7.55;100.00;162539.72;5050497;28;20033;-60
2023/03/20 07:36:53;;;;;;;21.85;14.77;;;;;;;7.58;100.00;162547.75;5052068;28;20028;-60
2023/03/20 07:39:19;;;;;;;20.08;14.95;;;;;;;7.56;100.00;162541.03;5051049;28;20025;-60
2023/03/20 07:41:44;;;;;;;21.25;13.75;;;;;;;7.58;100.00;162546.44;5064813;28;20016;-60
2023/03/20 07:44:09;;;;;;;23.92;14.68;;;;;;;7.66;100.00;162566.63;5063409;28;20028;-60
2023/03/20 07:46:35;;;;;;;21.85;14.32;;;;;;;7.65;100.00;162563.94;5063393;28;20041;-60
2023/03/20 07:49:00;;;;;;;24.00;15.13;;;;;;;7.63;100.00;162561.22;5064292;28;20257;-60
2023/03/20 07:51:25;;;;;;;20.42;12.68;;;;;;;7.65;100.00;162565.31;5064606;28;20041;-60
2023/03/20 07:53:51;;;;;;;22.73;16.15;;;;;;;7.66;100.00;162566.63;5071370;28;20032;-60
2023/03/20 07:56:16;;;;;;;20.98;15.27;;;;;;;7.73;100.00;162586.88;5069963;28;20044;-60
2023/03/20 07:58:41;;;;;;;18.30;12.60;;;;;;;7.77;100.00;162596.28;5071273;28;20415;-60
2023/03/20 08:01:07;;;;;;;25.65;15.80;;;;;;;7.80;100.00;162604.34;5066180;28;20033;-60
2023/03/20 08:03:32;;;;;;;20.75;13.52;;;;;;;7.86;100.00;162619.19;5058770;28;20017;-60
2023/03/20 08:05:58;;;;;;;19.58;13.77;;;;;;;7.87;100.00;162623.22;5058877;28;20481;-60
2023/03/20 08:08:23;;;;;;;22.35;13.48;;;;;;;7.96;100.00;162644.78;5065875;28;20434;-60
2023/03/20 08:10:48;;;;;;;19.42;14.13;;;;;;;7.97;100.00;162647.47;5051373;28;20070;-60
2023/03/20 08:13:14;;;;;;;20.95;12.00;;;;;;;7.87;100.00;162623.22;5049381;28;20029;-60
2023/03/20 08:15:40;;;;;;;23.83;14.45;;;;;;;7.87;100.00;162621.88;5049560;28;20075;-60
2023/03/20 08:18:05;;;;;;;20.08;13.68;;;;;;;8.00;100.00;162655.59;5050887;28;20481;-60
2023/03/20 08:20:30;;;;;;;22.52;12.90;;;;;;;8.08;100.00;162677.09;5059429;28;20036;-61
2023/03/20 08:22:56;;;;;;;20.80;12.15;;;;;;;8.05;100.00;162669.03;5071013;28;20025;-60
2023/03/20 08:25:21;;;;;;;22.35;14.02;;;;;;;8.05;100.00;162669.03;5069945;28;20117;-60
2023/03/20 08:27:47;;;;;;;17.05;10.82;;;;;;;8.02;100.00;162660.94;5070535;28;20028;-60
2023/03/20 08:30:13;;;;;;;20.52;11.48;;;;;;;7.97;100.00;162648.81;5069581;28;20047;-60
2023/03/20 08:32:38;;;;;;;21.88;12.35;;;;;;;8.04;100.00;162666.34;5071052;28;20434;-60
2023/03/20 08:35:04;;;;;;;14.80;10.30;;;;;;;8.15;100.00;162696.00;5069272;28;20510;-60
2023/03/20 08:37:29;;;;;;;24.85;13.35;;;;;;;8.21;100.00;162712.19;5071020;28;20033;-60
2023/03/20 08:39:55;;;;;;;19.27;12.40;;;;;;;8.18;100.00;162704.06;5069210;28;20522;-60
2023/03/20 08:42:20;;;;;;;20.83;10.70;;;;;;;8.47;100.00;162779.59;5069643;28;20032;-60
2023/03/20 08:44:47;;;;;;;12.13;8.93;;;;;;;8.70;100.00;162838.91;5049040;28;20041;-60
2023/03/20 08:47:12;;;;;;;21.20;11.52;;;;;;;8.88;100.00;162886.09;5051024;28;20024;-60
2023/03/20 08:49:37;;;;;;;20.13;11.30;;;;;;;8.85;100.00;162879.38;5052078;28;20036;-60
2023/03/20 08:52:03;;;;;;;12.85;9.77;;;;;;;8.87;100.00;162884.78;5070406;28;20028;-60
2023/03/20 08:54:29;;;;;;;15.27;10.25;;;;;;;9.05;100.00;162930.59;5063415;28;20443;-60
2023/03/20 08:56:55;;;;;;;16.67;9.82;;;;;;;9.15;100.00;162956.25;5070052;28;20471;-60
2023/03/20 08:59:20;;;;;;;13.45;8.00;;;;;;;9.01;100.00;162919.81;5062841;28;20083;-60
2023/03/20 09:01:46;;;;;;;15.77;8.32;;;;;;;8.77;100.00;162857.78;5062018;28;20017;-60
2023/03/20 09:04:12;;;;;;;13.85;9.55;;;;;;;8.91;100.00;162894.22;5069928;28;20103;-60
2023/03/20 09:06:38;;;;;;;18.48;9.65;;;;;;;8.88;100.00;162886.09;5069031;28;20487;-60
2023/03/20 09:09:04;;;;;;;14.88;9.20;;;;;;;8.88;100.00;162887.47;5070740;28;20039;-60
2023/03/20 09:11:29;;;;;;;21.27;7.82;;;;;;;8.94;100.00;162900.94;5068944;28;20036;-60
2023/03/20 09:13:55;;;;;;;14.38;9.10;;;;;;;8.84;100.00;162876.66;5070483;28;20032;-60
2023/03/20 09:16:20;;;;;;;14.57;10.48;;;;;;;8.93;100.00;162898.25;5069074;28;20040;-60
2023/03/20 09:18:45;;;;;;;18.13;9.38;;;;;;;9.07;100.00;162936.00;5069246;28;20044;-60
2023/03/20 09:21:11;;;;;;;11.32;8.20;;;;;;;9.02;100.00;162922.53;5065998;28;20556;-60
2023/03/20 09:23:36;;;;;;;14.18;8.60;;;;;;;9.04;100.00;162927.94;5070095;28;20640;-60
2023/03/20 09:26:01;;;;;;;16.90;7.97;;;;;;;8.97;100.00;162909.06;5067907;28;20041;-60
2023/03/20 09:28:27;;;;;;;14.27;7.68;;;;;;;8.98;100.00;162911.72;5067654;28;20069;-60
2023/03/20 09:30:57;;;;;;;12.60;7.80;;;;;;;9.00;100.00;162918.50;5069333;28;20044;-60
2023/03/20 09:33:22;;;;;;;21.15;9.65;;;;;;;9.01;100.00;162919.81;5073889;28;20484;-60
2023/03/20 09:35:48;;;;;;;19.77;9.10;;;;;;;9.02;100.00;162922.53;5072764;28;20044;-60
2023/03/20 09:38:13;;;;;;;12.40;7.53;;;;;;;9.05;100.00;162931.97;5057871;28;20020;-60
2023/03/20 09:40:53;;;;;;;11.57;6.50;;;;;;;9.09;100.00;162941.41;5068760;28;20388;-60
2023/03/20 09:43:34;;;;;;;13.38;6.53;;;;;;;9.25;100.00;162981.84;5063435;28;20044;-60
2023/03/20 09:46:09;;;;;;;9.45;7.47;;;;;;;9.30;100.00;162995.34;5068996;28;20063;-60
2023/03/20 09:48:42;;;;;;;13.20;6.78;;;;;;;9.33;100.00;163003.44;5058302;28;20024;-60
2023/03/20 09:51:43;;;;;;;10.80;7.13;;;;;;;9.46;100.00;163038.50;5063527;28;20041;-60
2023/03/20 09:54:23;;;;;;;13.02;6.55;;;;;;;9.61;100.00;163076.28;5070699;28;20032;-60
2023/03/20 09:56:50;;;;;;;13.32;9.07;;;;;;;9.53;100.00;163057.38;5058907;28;20036;-60
2023/03/20 09:59:18;;;;;;;15.38;7.53;;;;;;;9.63;100.00;163081.69;5073479;28;20391;-57
2023/03/20 10:01:51;;;;;;;13.05;7.78;;;;;;;9.76;100.00;163116.75;5073962;28;20020;-60
2023/03/20 10:04:17;;;;;;;30.55;7.20;;;;;;;9.99;100.00;163176.09;5072230;28;20208;-60
2023/03/20 10:06:42;;;;;;;34.72;7.85;;;;;;;10.29;100.00;163254.38;5073505;28;20034;-60
2023/03/20 10:09:19;;;;;;;17.20;9.07;;;;;;;10.45;100.00;163296.25;5073529;28;20024;-60
2023/03/20 10:11:44;;;;;;;10.95;6.20;;;;;;;10.59;100.00;163332.72;5072574;28;20519;-60
2023/03/20 10:14:13;;;;;;;11.30;6.25;;;;;;;10.78;100.00;163382.66;5073616;28;20107;-60
2023/03/20 10:17:08;;;;;;;13.07;6.22;;;;;;;10.84;100.00;163398.84;5071996;28;20633;-60
2023/03/20 10:19:44;;;;;;;11.07;6.35;;;;;;;10.83;100.00;163394.81;5071980;28;20132;-60
2023/03/20 10:22:25;;;;;;;13.50;6.05;;;;;;;10.68;100.00;163357.03;5073472;28;20024;-60
2023/03/20 10:25:07;;;;;;;17.02;7.00;;;;;;;10.81;100.00;163389.41;5071597;28;20056;-60
2023/03/20 10:27:42;;;;;;;13.40;8.18;;;;;;;10.68;100.00;163357.03;5073590;28;20032;-60
2023/03/20 10:30:25;;;;;;;11.95;6.00;;;;;;;10.74;100.00;163373.22;5071788;28;20045;-60
2023/03/20 10:33:17;;;;;;;17.38;7.55;;;;;;;10.57;100.00;163327.28;5072688;28;20028;-60
2023/03/20 10:35:57;;;;;;;7.57;6.22;;;;;;;10.59;100.00;163332.72;5071699;28;20071;-60
2023/03/20 10:38:37;;;;;;;13.55;6.65;;;;;;;10.35;100.00;163270.56;5053870;28;20032;-60
2023/03/20 10:41:15;;;;;;;5.43;3.67;;;;;;;10.11;100.00;163207.16;5046544;28;20046;-60
2023/03/20 10:43:43;;;;;;;8.63;4.63;;;;;;;10.10;100.00;163205.78;5032961;28;20100;-60
2023/03/20 10:46:20;;;;;;;12.90;4.85;;;;;;;9.85;100.00;163139.66;5047132;28;20460;-60
2023/03/20 10:49:07;;;;;;;10.75;5.43;;;;;;;9.81;100.00;163128.88;5052979;28;20032;-60
2023/03/20 10:51:54;;;;;;;10.02;5.53;;;;;;;9.74;100.00;163111.34;5066345;28;20040;-60
2023/03/20 10:54:34;;;;;;;10.50;5.07;;;;;;;9.86;100.00;163141.03;5051312;28;20039;-60
2023/03/20 10:57:02;;;;;;;6.85;4.50;;;;;;;10.00;100.00;163178.81;5053208;28;20120;-60
2023/03/20 10:59:41;;;;;;;7.82;5.53;;;;;;;10.07;100.00;163197.69;5065187;28;20020;-60
2023/03/20 11:02:10;;;;;;;9.05;5.05;;;;;;;9.91;100.00;163155.84;5072723;28;20471;-60
2023/03/20 11:04:36;;;;;;;10.07;5.75;;;;;;;9.84;100.00;163136.97;5067191;28;20048;-60
2023/03/20 11:07:14;;;;;;;9.52;5.13;;;;;;;9.73;100.00;163108.63;5072282;28;20423;-60
2023/03/20 11:09:40;;;;;;;22.90;7.05;;;;;;;9.70;100.00;163100.56;5069899;28;20040;-60
2023/03/20 11:12:15;;;;;;;10.57;6.78;;;;;;;9.68;100.00;163095.16;5071499;28;20047;-60
2023/03/20 11:14:40;;;;;;;10.27;5.55;;;;;;;9.52;100.00;163053.34;5071158;28;20399;-60
2023/03/20 11:17:06;;;;;;;10.07;5.85;;;;;;;9.63;100.00;163081.69;5072398;28;20024;-60
2023/03/20 11:19:37;;;;;;;6.10;5.43;;;;;;;9.63;100.00;163081.69;5070193;28;20527;-60
2023/03/20 11:22:18;;;;;;;11.95;6.88;;;;;;;9.34;100.00;163006.16;5071685;28;20535;-60